sensor_id;sensor_type;location;lat;lon;timestamp;temperature;humidity
64226;DHT22;50545;56.064;26.178;2023-05-16T00:01:41;17.10;62.40
64226;DHT22;50545;56.064;26.178;2023-05-16T00:04:09;17.10;62.10
64226;DHT22;50545;56.064;26.178;2023-05-16T00:06:36;17.10;62.20
64226;DHT22;50545;56.064;26.178;2023-05-16T00:09:03;17.10;61.70
64226;DHT22;50545;56.064;26.178;2023-05-16T00:11:30;17.10;61.40
64226;DHT22;50545;56.064;26.178;2023-05-16T00:13:58;17.10;61.50
64226;DHT22;50545;56.064;26.178;2023-05-16T00:16:25;17.10;60.90
64226;DHT22;50545;56.064;26.178;2023-05-16T00:18:55;17.20;62.00
64226;DHT22;50545;56.064;26.178;2023-05-16T00:21:23;17.10;63.30
64226;DHT22;50545;56.064;26.178;2023-05-16T00:23:51;17.10;67.20
64226;DHT22;50545;56.064;26.178;2023-05-16T00:26:18;17.00;63.70
64226;DHT22;50545;56.064;26.178;2023-05-16T00:28:46;16.90;66.50
64226;DHT22;50545;56.064;26.178;2023-05-16T00:31:13;16.80;67.60
64226;DHT22;50545;56.064;26.178;2023-05-16T00:33:40;16.70;68.10
64226;DHT22;50545;56.064;26.178;2023-05-16T00:36:08;16.60;69.00
64226;DHT22;50545;56.064;26.178;2023-05-16T00:38:35;16.60;68.20
64226;DHT22;50545;56.064;26.178;2023-05-16T00:41:03;16.50;69.10
64226;DHT22;50545;56.064;26.178;2023-05-16T00:43:30;16.50;67.40
64226;DHT22;50545;56.064;26.178;2023-05-16T00:45:57;16.50;67.80
64226;DHT22;50545;56.064;26.178;2023-05-16T00:48:26;16.50;69.20
64226;DHT22;50545;56.064;26.178;2023-05-16T00:50:53;16.50;69.60
64226;DHT22;50545;56.064;26.178;2023-05-16T00:53:22;16.50;72.80
64226;DHT22;50545;56.064;26.178;2023-05-16T00:55:50;16.30;78.20
64226;DHT22;50545;56.064;26.178;2023-05-16T00:58:19;16.00;84.70
64226;DHT22;50545;56.064;26.178;2023-05-16T01:00:48;15.70;90.10
64226;DHT22;50545;56.064;26.178;2023-05-16T01:03:15;15.30;92.20
64226;DHT22;50545;56.064;26.178;2023-05-16T01:05:43;15.00;93.90
64226;DHT22;50545;56.064;26.178;2023-05-16T01:08:10;14.90;95.50
64226;DHT22;50545;56.064;26.178;2023-05-16T01:13:30;14.50;98.10
64226;DHT22;50545;56.064;26.178;2023-05-16T01:16:06;14.30;99.20
64226;DHT22;50545;56.064;26.178;2023-05-16T01:38:43;13.50;99.90
64226;DHT22;50545;56.064;26.178;2023-05-16T01:41:47;13.40;99.90
64226;DHT22;50545;56.064;26.178;2023-05-16T01:44:24;13.40;99.90
64226;DHT22;50545;56.064;26.178;2023-05-16T01:46:57;13.30;99.90
64226;DHT22;50545;56.064;26.178;2023-05-16T02:23:42;13.40;99.90
64226;DHT22;50545;56.064;26.178;2023-05-16T02:26:10;13.40;99.90
64226;DHT22;50545;56.064;26.178;2023-05-16T02:28:37;13.30;99.90
64226;DHT22;50545;56.064;26.178;2023-05-16T02:31:04;13.30;99.90
64226;DHT22;50545;56.064;26.178;2023-05-16T02:33:32;13.20;99.90
64226;DHT22;50545;56.064;26.178;2023-05-16T02:35:59;13.20;99.90
64226;DHT22;50545;56.064;26.178;2023-05-16T02:38:26;13.20;99.90
64226;DHT22;50545;56.064;26.178;2023-05-16T02:40:53;13.20;99.90
64226;DHT22;50545;56.064;26.178;2023-05-16T02:43:21;13.10;99.90
64226;DHT22;50545;56.064;26.178;2023-05-16T02:45:48;13.10;99.90
64226;DHT22;50545;56.064;26.178;2023-05-16T02:48:15;13.10;99.90
64226;DHT22;50545;56.064;26.178;2023-05-16T02:50:42;13.10;99.90
64226;DHT22;50545;56.064;26.178;2023-05-16T02:53:10;13.10;99.90
64226;DHT22;50545;56.064;26.178;2023-05-16T02:55:37;13.10;99.90
64226;DHT22;50545;56.064;26.178;2023-05-16T02:58:04;13.10;99.90
64226;DHT22;50545;56.064;26.178;2023-05-16T03:00:32;13.00;99.90
64226;DHT22;50545;56.064;26.178;2023-05-16T03:02:59;13.00;99.90
64226;DHT22;50545;56.064;26.178;2023-05-16T03:05:27;12.90;99.90
64226;DHT22;50545;56.064;26.178;2023-05-16T03:07:55;12.90;99.90
64226;DHT22;50545;56.064;26.178;2023-05-16T03:10:22;12.90;99.90
64226;DHT22;50545;56.064;26.178;2023-05-16T03:12:49;12.80;99.90
64226;DHT22;50545;56.064;26.178;2023-05-16T03:15:16;12.80;99.90
64226;DHT22;50545;56.064;26.178;2023-05-16T03:17:43;12.80;99.90
64226;DHT22;50545;56.064;26.178;2023-05-16T03:20:11;12.80;99.90
64226;DHT22;50545;56.064;26.178;2023-05-16T03:22:38;12.80;99.90
64226;DHT22;50545;56.064;26.178;2023-05-16T03:25:06;12.80;99.90
64226;DHT22;50545;56.064;26.178;2023-05-16T03:27:33;12.80;99.90
64226;DHT22;50545;56.064;26.178;2023-05-16T03:30:01;12.70;99.90
64226;DHT22;50545;56.064;26.178;2023-05-16T03:32:28;12.70;99.90
64226;DHT22;50545;56.064;26.178;2023-05-16T03:34:55;12.70;99.90
64226;DHT22;50545;56.064;26.178;2023-05-16T03:37:22;12.60;99.90
64226;DHT22;50545;56.064;26.178;2023-05-16T03:39:50;12.60;99.90
64226;DHT22;50545;56.064;26.178;2023-05-16T03:42:17;12.60;99.90
64226;DHT22;50545;56.064;26.178;2023-05-16T03:44:44;12.60;99.90
64226;DHT22;50545;56.064;26.178;2023-05-16T03:47:12;12.50;99.90
64226;DHT22;50545;56.064;26.178;2023-05-16T03:49:39;12.50;99.90
64226;DHT22;50545;56.064;26.178;2023-05-16T03:52:07;12.50;99.90
64226;DHT22;50545;56.064;26.178;2023-05-16T03:54:34;12.50;99.90
64226;DHT22;50545;56.064;26.178;2023-05-16T03:57:01;12.50;99.90
64226;DHT22;50545;56.064;26.178;2023-05-16T03:59:29;12.50;99.90
64226;DHT22;50545;56.064;26.178;2023-05-16T04:01:56;12.40;99.90
64226;DHT22;50545;56.064;26.178;2023-05-16T04:04:23;12.50;99.90
64226;DHT22;50545;56.064;26.178;2023-05-16T04:06:51;12.40;99.90
64226;DHT22;50545;56.064;26.178;2023-05-16T04:09:18;12.40;99.90
64226;DHT22;50545;56.064;26.178;2023-05-16T04:11:45;12.40;99.90
64226;DHT22;50545;56.064;26.178;2023-05-16T04:14:12;12.40;99.90
64226;DHT22;50545;56.064;26.178;2023-05-16T04:16:41;12.50;99.90
64226;DHT22;50545;56.064;26.178;2023-05-16T04:19:08;12.50;99.90
64226;DHT22;50545;56.064;26.178;2023-05-16T04:21:36;12.50;99.90
64226;DHT22;50545;56.064;26.178;2023-05-16T04:24:03;12.50;99.90
64226;DHT22;50545;56.064;26.178;2023-05-16T04:26:31;12.50;99.90
64226;DHT22;50545;56.064;26.178;2023-05-16T04:28:58;12.50;99.90
64226;DHT22;50545;56.064;26.178;2023-05-16T04:31:26;12.50;99.90
64226;DHT22;50545;56.064;26.178;2023-05-16T04:33:53;12.50;99.90
64226;DHT22;50545;56.064;26.178;2023-05-16T04:36:21;12.50;99.90
64226;DHT22;50545;56.064;26.178;2023-05-16T04:38:49;12.60;99.90
64226;DHT22;50545;56.064;26.178;2023-05-16T04:41:16;12.60;99.90
64226;DHT22;50545;56.064;26.178;2023-05-16T04:43:44;12.60;99.90
64226;DHT22;50545;56.064;26.178;2023-05-16T04:46:11;12.60;99.90
64226;DHT22;50545;56.064;26.178;2023-05-16T04:48:38;12.60;99.90
64226;DHT22;50545;56.064;26.178;2023-05-16T04:51:06;12.60;99.90
64226;DHT22;50545;56.064;26.178;2023-05-16T04:53:33;12.60;99.90
64226;DHT22;50545;56.064;26.178;2023-05-16T04:56:00;12.60;99.90
64226;DHT22;50545;56.064;26.178;2023-05-16T04:58:27;12.60;99.90
64226;DHT22;50545;56.064;26.178;2023-05-16T05:00:55;12.70;99.90
64226;DHT22;50545;56.064;26.178;2023-05-16T05:03:22;12.70;99.90
64226;DHT22;50545;56.064;26.178;2023-05-16T05:05:50;12.70;99.90
64226;DHT22;50545;56.064;26.178;2023-05-16T05:08:18;12.70;99.90
64226;DHT22;50545;56.064;26.178;2023-05-16T05:24:33;12.80;99.90
64226;DHT22;50545;56.064;26.178;2023-05-16T05:27:01;12.80;99.90
64226;DHT22;50545;56.064;26.178;2023-05-16T05:29:28;12.90;99.90
64226;DHT22;50545;56.064;26.178;2023-05-16T05:31:55;12.90;99.90
64226;DHT22;50545;56.064;26.178;2023-05-16T05:34:23;12.90;99.90
64226;DHT22;50545;56.064;26.178;2023-05-16T05:36:50;13.00;99.90
64226;DHT22;50545;56.064;26.178;2023-05-16T05:39:17;13.00;99.90
64226;DHT22;50545;56.064;26.178;2023-05-16T05:41:45;13.10;99.90
64226;DHT22;50545;56.064;26.178;2023-05-16T05:44:12;13.10;99.90
64226;DHT22;50545;56.064;26.178;2023-05-16T06:03:01;13.30;99.90
64226;DHT22;50545;56.064;26.178;2023-05-16T06:05:28;13.40;99.90
64226;DHT22;50545;56.064;26.178;2023-05-16T06:07:56;13.50;99.90
64226;DHT22;50545;56.064;26.178;2023-05-16T06:10:23;13.50;99.90
64226;DHT22;50545;56.064;26.178;2023-05-16T06:12:50;13.60;99.90
64226;DHT22;50545;56.064;26.178;2023-05-16T06:15:18;13.60;99.90
64226;DHT22;50545;56.064;26.178;2023-05-16T06:17:45;13.60;99.90
64226;DHT22;50545;56.064;26.178;2023-05-16T06:20:12;13.70;99.90
64226;DHT22;50545;56.064;26.178;2023-05-16T06:22:39;13.70;99.90
64226;DHT22;50545;56.064;26.178;2023-05-16T06:25:07;13.70;99.90
64226;DHT22;50545;56.064;26.178;2023-05-16T06:27:34;13.80;99.90
64226;DHT22;50545;56.064;26.178;2023-05-16T06:30:01;13.80;99.90
64226;DHT22;50545;56.064;26.178;2023-05-16T06:32:29;13.80;99.90
64226;DHT22;50545;56.064;26.178;2023-05-16T06:34:56;13.90;99.90
64226;DHT22;50545;56.064;26.178;2023-05-16T06:37:23;13.90;99.90
64226;DHT22;50545;56.064;26.178;2023-05-16T06:39:52;13.80;99.90
64226;DHT22;50545;56.064;26.178;2023-05-16T06:42:19;13.80;99.90
64226;DHT22;50545;56.064;26.178;2023-05-16T06:44:46;13.80;99.90
64226;DHT22;50545;56.064;26.178;2023-05-16T06:47:15;13.90;99.90
64226;DHT22;50545;56.064;26.178;2023-05-16T06:49:42;13.90;99.90
64226;DHT22;50545;56.064;26.178;2023-05-16T06:52:09;13.80;99.90
64226;DHT22;50545;56.064;26.178;2023-05-16T06:54:37;13.80;99.90
64226;DHT22;50545;56.064;26.178;2023-05-16T06:57:04;13.80;99.90
64226;DHT22;50545;56.064;26.178;2023-05-16T06:59:33;13.80;99.90
64226;DHT22;50545;56.064;26.178;2023-05-16T07:02:01;13.80;99.90
64226;DHT22;50545;56.064;26.178;2023-05-16T07:04:28;13.80;99.90
64226;DHT22;50545;56.064;26.178;2023-05-16T07:06:55;13.70;99.90
64226;DHT22;50545;56.064;26.178;2023-05-16T07:09:23;13.70;99.90
64226;DHT22;50545;56.064;26.178;2023-05-16T07:11:50;13.70;99.90
64226;DHT22;50545;56.064;26.178;2023-05-16T07:14:17;13.70;99.90
64226;DHT22;50545;56.064;26.178;2023-05-16T07:16:44;13.80;99.90
64226;DHT22;50545;56.064;26.178;2023-05-16T07:19:12;13.80;99.90
64226;DHT22;50545;56.064;26.178;2023-05-16T07:21:39;13.80;99.90
64226;DHT22;50545;56.064;26.178;2023-05-16T07:24:07;13.70;99.90
64226;DHT22;50545;56.064;26.178;2023-05-16T07:26:37;13.70;99.90
64226;DHT22;50545;56.064;26.178;2023-05-16T07:29:04;13.70;99.90
64226;DHT22;50545;56.064;26.178;2023-05-16T07:31:32;13.70;99.90
64226;DHT22;50545;56.064;26.178;2023-05-16T07:33:59;13.60;99.90
64226;DHT22;50545;56.064;26.178;2023-05-16T07:36:26;13.70;99.90
64226;DHT22;50545;56.064;26.178;2023-05-16T07:38:54;13.70;99.90
64226;DHT22;50545;56.064;26.178;2023-05-16T07:41:21;13.70;99.90
64226;DHT22;50545;56.064;26.178;2023-05-16T07:43:48;13.70;99.90
64226;DHT22;50545;56.064;26.178;2023-05-16T07:46:16;13.70;99.90
64226;DHT22;50545;56.064;26.178;2023-05-16T07:48:43;13.70;99.90
64226;DHT22;50545;56.064;26.178;2023-05-16T07:51:10;13.80;99.90
64226;DHT22;50545;56.064;26.178;2023-05-16T07:53:38;13.80;99.90
64226;DHT22;50545;56.064;26.178;2023-05-16T07:56:05;13.70;99.90
64226;DHT22;50545;56.064;26.178;2023-05-16T07:58:34;13.80;99.90
64226;DHT22;50545;56.064;26.178;2023-05-16T08:01:01;13.80;99.90
64226;DHT22;50545;56.064;26.178;2023-05-16T08:03:28;13.70;99.90
64226;DHT22;50545;56.064;26.178;2023-05-16T08:05:56;13.70;99.90
64226;DHT22;50545;56.064;26.178;2023-05-16T08:08:24;13.70;99.90
64226;DHT22;50545;56.064;26.178;2023-05-16T08:10:51;13.70;99.90
64226;DHT22;50545;56.064;26.178;2023-05-16T08:13:18;13.70;99.90
64226;DHT22;50545;56.064;26.178;2023-05-16T08:15:45;13.70;99.90
64226;DHT22;50545;56.064;26.178;2023-05-16T08:18:13;13.70;99.90
64226;DHT22;50545;56.064;26.178;2023-05-16T08:20:41;13.90;99.90
64226;DHT22;50545;56.064;26.178;2023-05-16T08:23:08;13.90;99.90
64226;DHT22;50545;56.064;26.178;2023-05-16T08:25:36;14.00;99.90
64226;DHT22;50545;56.064;26.178;2023-05-16T08:28:03;14.00;99.90
64226;DHT22;50545;56.064;26.178;2023-05-16T08:30:31;14.00;99.90
64226;DHT22;50545;56.064;26.178;2023-05-16T08:32:58;14.00;99.90
64226;DHT22;50545;56.064;26.178;2023-05-16T08:35:25;14.00;99.90
64226;DHT22;50545;56.064;26.178;2023-05-16T08:37:53;14.00;99.90
64226;DHT22;50545;56.064;26.178;2023-05-16T08:40:21;14.00;99.90
64226;DHT22;50545;56.064;26.178;2023-05-16T08:42:51;14.10;99.90
64226;DHT22;50545;56.064;26.178;2023-05-16T08:45:21;14.10;99.90
64226;DHT22;50545;56.064;26.178;2023-05-16T08:47:49;14.20;99.90
64226;DHT22;50545;56.064;26.178;2023-05-16T08:50:19;14.30;99.90
64226;DHT22;50545;56.064;26.178;2023-05-16T08:52:51;14.40;99.90
64226;DHT22;50545;56.064;26.178;2023-05-16T08:55:19;14.50;99.90
64226;DHT22;50545;56.064;26.178;2023-05-16T08:57:49;14.60;99.90
64226;DHT22;50545;56.064;26.178;2023-05-16T09:00:17;14.70;99.90
64226;DHT22;50545;56.064;26.178;2023-05-16T09:02:45;15.00;99.90
64226;DHT22;50545;56.064;26.178;2023-05-16T09:05:16;15.10;99.90
64226;DHT22;50545;56.064;26.178;2023-05-16T09:07:44;15.20;99.90
64226;DHT22;50545;56.064;26.178;2023-05-16T09:10:12;15.30;99.90
64226;DHT22;50545;56.064;26.178;2023-05-16T09:12:40;15.30;99.90
64226;DHT22;50545;56.064;26.178;2023-05-16T09:15:08;15.30;99.90
64226;DHT22;50545;56.064;26.178;2023-05-16T09:17:44;15.20;99.90
64226;DHT22;50545;56.064;26.178;2023-05-16T09:20:14;15.20;99.90
64226;DHT22;50545;56.064;26.178;2023-05-16T09:22:58;15.20;99.90
64226;DHT22;50545;56.064;26.178;2023-05-16T09:25:27;15.10;99.90
64226;DHT22;50545;56.064;26.178;2023-05-16T09:27:59;15.00;99.90
64226;DHT22;50545;56.064;26.178;2023-05-16T09:30:31;15.00;99.90
64226;DHT22;50545;56.064;26.178;2023-05-16T09:33:00;15.00;99.90
64226;DHT22;50545;56.064;26.178;2023-05-16T09:35:28;14.90;99.90
64226;DHT22;50545;56.064;26.178;2023-05-16T09:37:58;14.90;99.90
64226;DHT22;50545;56.064;26.178;2023-05-16T09:40:25;14.90;99.90
64226;DHT22;50545;56.064;26.178;2023-05-16T09:43:03;14.80;99.90
64226;DHT22;50545;56.064;26.178;2023-05-16T09:45:32;14.80;99.90
64226;DHT22;50545;56.064;26.178;2023-05-16T09:48:05;14.70;99.90
64226;DHT22;50545;56.064;26.178;2023-05-16T09:50:34;14.60;99.90
64226;DHT22;50545;56.064;26.178;2023-05-16T09:53:03;14.60;99.90
64226;DHT22;50545;56.064;26.178;2023-05-16T09:55:31;14.50;99.90
64226;DHT22;50545;56.064;26.178;2023-05-16T09:57:58;14.40;99.90
64226;DHT22;50545;56.064;26.178;2023-05-16T10:00:30;14.40;99.90
64226;DHT22;50545;56.064;26.178;2023-05-16T10:02:59;14.40;99.90
64226;DHT22;50545;56.064;26.178;2023-05-16T10:05:30;14.40;99.90
64226;DHT22;50545;56.064;26.178;2023-05-16T10:07:58;14.40;99.90
64226;DHT22;50545;56.064;26.178;2023-05-16T10:10:25;14.40;99.90
64226;DHT22;50545;56.064;26.178;2023-05-16T10:12:57;14.40;99.90
64226;DHT22;50545;56.064;26.178;2023-05-16T10:15:27;14.40;99.90
64226;DHT22;50545;56.064;26.178;2023-05-16T10:17:56;14.40;99.90
64226;DHT22;50545;56.064;26.178;2023-05-16T10:20:28;14.40;99.90
64226;DHT22;50545;56.064;26.178;2023-05-16T10:22:57;14.40;99.90
64226;DHT22;50545;56.064;26.178;2023-05-16T10:25:33;14.30;99.90
64226;DHT22;50545;56.064;26.178;2023-05-16T10:28:01;14.30;99.90
64226;DHT22;50545;56.064;26.178;2023-05-16T10:30:32;14.30;99.90
64226;DHT22;50545;56.064;26.178;2023-05-16T10:33:00;14.30;99.90
64226;DHT22;50545;56.064;26.178;2023-05-16T10:35:29;14.20;99.90
64226;DHT22;50545;56.064;26.178;2023-05-16T10:37:57;14.20;99.90
64226;DHT22;50545;56.064;26.178;2023-05-16T10:40:24;14.30;99.90
64226;DHT22;50545;56.064;26.178;2023-05-16T10:43:00;14.30;99.90
64226;DHT22;50545;56.064;26.178;2023-05-16T10:45:28;14.20;99.90
64226;DHT22;50545;56.064;26.178;2023-05-16T10:47:57;14.20;99.90
64226;DHT22;50545;56.064;26.178;2023-05-16T10:50:40;14.10;99.90
64226;DHT22;50545;56.064;26.178;2023-05-16T10:53:29;14.00;99.90
64226;DHT22;50545;56.064;26.178;2023-05-16T11:01:31;14.00;99.90
64226;DHT22;50545;56.064;26.178;2023-05-16T11:06:43;14.00;99.90
64226;DHT22;50545;56.064;26.178;2023-05-16T11:11:42;14.20;99.90
64226;DHT22;50545;56.064;26.178;2023-05-16T11:17:24;14.50;99.90
64226;DHT22;50545;56.064;26.178;2023-05-16T11:19:57;14.70;99.90
64226;DHT22;50545;56.064;26.178;2023-05-16T11:22:32;14.80;99.90
64226;DHT22;50545;56.064;26.178;2023-05-16T11:25:06;14.90;99.90
64226;DHT22;50545;56.064;26.178;2023-05-16T11:27:35;15.00;99.90
64226;DHT22;50545;56.064;26.178;2023-05-16T11:32:34;15.30;99.90
64226;DHT22;50545;56.064;26.178;2023-05-16T11:35:02;15.50;99.90
64226;DHT22;50545;56.064;26.178;2023-05-16T11:37:30;15.60;99.90
64226;DHT22;50545;56.064;26.178;2023-05-16T11:40:01;15.70;99.90
64226;DHT22;50545;56.064;26.178;2023-05-16T11:42:37;15.80;99.90
64226;DHT22;50545;56.064;26.178;2023-05-16T11:45:09;16.00;99.90
64226;DHT22;50545;56.064;26.178;2023-05-16T11:47:39;16.00;99.90
64226;DHT22;50545;56.064;26.178;2023-05-16T11:52:37;15.90;99.90
64226;DHT22;50545;56.064;26.178;2023-05-16T11:55:06;15.80;99.90
64226;DHT22;50545;56.064;26.178;2023-05-16T11:57:37;15.70;99.90
64226;DHT22;50545;56.064;26.178;2023-05-16T12:00:16;15.60;99.90
64226;DHT22;50545;56.064;26.178;2023-05-16T12:02:48;15.60;99.90
64226;DHT22;50545;56.064;26.178;2023-05-16T12:05:20;15.50;99.90
64226;DHT22;50545;56.064;26.178;2023-05-16T12:07:51;15.50;99.90
64226;DHT22;50545;56.064;26.178;2023-05-16T12:10:21;15.50;99.90
64226;DHT22;50545;56.064;26.178;2023-05-16T12:12:50;15.50;99.90
64226;DHT22;50545;56.064;26.178;2023-05-16T12:15:18;15.50;99.90
64226;DHT22;50545;56.064;26.178;2023-05-16T12:17:47;15.40;99.90
64226;DHT22;50545;56.064;26.178;2023-05-16T12:20:15;15.30;99.90
64226;DHT22;50545;56.064;26.178;2023-05-16T12:22:43;15.30;99.90
64226;DHT22;50545;56.064;26.178;2023-05-16T12:25:28;15.30;99.90
64226;DHT22;50545;56.064;26.178;2023-05-16T12:27:59;15.30;99.90
64226;DHT22;50545;56.064;26.178;2023-05-16T12:30:28;15.30;99.90
64226;DHT22;50545;56.064;26.178;2023-05-16T12:33:00;15.30;99.90
64226;DHT22;50545;56.064;26.178;2023-05-16T12:35:34;15.30;99.90
64226;DHT22;50545;56.064;26.178;2023-05-16T12:38:05;15.20;99.90
64226;DHT22;50545;56.064;26.178;2023-05-16T12:40:35;15.20;99.90
64226;DHT22;50545;56.064;26.178;2023-05-16T12:43:04;15.30;99.90
64226;DHT22;50545;56.064;26.178;2023-05-16T12:45:38;15.20;99.90
64226;DHT22;50545;56.064;26.178;2023-05-16T12:48:11;15.20;99.90
64226;DHT22;50545;56.064;26.178;2023-05-16T12:50:39;15.20;99.90
64226;DHT22;50545;56.064;26.178;2023-05-16T12:53:12;15.20;99.90
64226;DHT22;50545;56.064;26.178;2023-05-16T12:55:40;15.10;99.90
64226;DHT22;50545;56.064;26.178;2023-05-16T12:58:09;15.00;99.90
64226;DHT22;50545;56.064;26.178;2023-05-16T13:00:36;15.00;99.90
64226;DHT22;50545;56.064;26.178;2023-05-16T13:03:05;15.00;99.90
64226;DHT22;50545;56.064;26.178;2023-05-16T13:05:34;15.00;99.90
64226;DHT22;50545;56.064;26.178;2023-05-16T13:08:02;14.90;99.90
64226;DHT22;50545;56.064;26.178;2023-05-16T13:10:30;14.90;99.90
64226;DHT22;50545;56.064;26.178;2023-05-16T13:12:57;14.90;99.90
64226;DHT22;50545;56.064;26.178;2023-05-16T13:15:26;15.00;99.90
64226;DHT22;50545;56.064;26.178;2023-05-16T13:17:54;15.10;99.90
64226;DHT22;50545;56.064;26.178;2023-05-16T13:20:21;15.30;99.90
64226;DHT22;50545;56.064;26.178;2023-05-16T13:22:49;15.40;99.90
64226;DHT22;50545;56.064;26.178;2023-05-16T13:25:16;15.50;99.90
64226;DHT22;50545;56.064;26.178;2023-05-16T13:27:44;15.60;99.90
64226;DHT22;50545;56.064;26.178;2023-05-16T13:30:12;15.70;99.90
64226;DHT22;50545;56.064;26.178;2023-05-16T13:32:39;15.70;99.90
64226;DHT22;50545;56.064;26.178;2023-05-16T13:35:07;15.70;99.90
64226;DHT22;50545;56.064;26.178;2023-05-16T13:37:36;15.70;99.90
64226;DHT22;50545;56.064;26.178;2023-05-16T13:40:04;15.70;99.90
64226;DHT22;50545;56.064;26.178;2023-05-16T13:42:31;15.70;99.90
64226;DHT22;50545;56.064;26.178;2023-05-16T13:44:58;15.60;99.90
64226;DHT22;50545;56.064;26.178;2023-05-16T13:47:26;15.50;99.90
64226;DHT22;50545;56.064;26.178;2023-05-16T13:49:53;15.40;99.90
64226;DHT22;50545;56.064;26.178;2023-05-16T13:52:20;15.40;99.90
64226;DHT22;50545;56.064;26.178;2023-05-16T13:54:47;15.30;99.90
64226;DHT22;50545;56.064;26.178;2023-05-16T13:57:15;15.20;99.90
64226;DHT22;50545;56.064;26.178;2023-05-16T13:59:42;15.20;99.90
64226;DHT22;50545;56.064;26.178;2023-05-16T14:02:12;15.20;99.90
64226;DHT22;50545;56.064;26.178;2023-05-16T14:04:40;15.10;99.90
64226;DHT22;50545;56.064;26.178;2023-05-16T14:07:07;15.10;99.90
64226;DHT22;50545;56.064;26.178;2023-05-16T14:09:34;15.10;99.90
64226;DHT22;50545;56.064;26.178;2023-05-16T14:12:08;15.00;99.90
64226;DHT22;50545;56.064;26.178;2023-05-16T14:14:38;15.00;99.90
64226;DHT22;50545;56.064;26.178;2023-05-16T14:17:06;15.00;99.90
64226;DHT22;50545;56.064;26.178;2023-05-16T14:19:33;14.90;99.90
64226;DHT22;50545;56.064;26.178;2023-05-16T14:22:01;14.90;99.90
64226;DHT22;50545;56.064;26.178;2023-05-16T14:24:28;14.90;99.90
64226;DHT22;50545;56.064;26.178;2023-05-16T14:26:55;14.90;99.90
64226;DHT22;50545;56.064;26.178;2023-05-16T14:29:22;14.90;99.90
64226;DHT22;50545;56.064;26.178;2023-05-16T14:31:51;15.00;99.90
64226;DHT22;50545;56.064;26.178;2023-05-16T14:34:19;15.00;99.90
64226;DHT22;50545;56.064;26.178;2023-05-16T14:36:49;15.10;99.90
64226;DHT22;50545;56.064;26.178;2023-05-16T14:39:16;15.00;99.90
64226;DHT22;50545;56.064;26.178;2023-05-16T14:41:44;15.00;99.90
64226;DHT22;50545;56.064;26.178;2023-05-16T14:44:11;15.00;99.90
64226;DHT22;50545;56.064;26.178;2023-05-16T14:46:38;15.00;99.90
64226;DHT22;50545;56.064;26.178;2023-05-16T14:49:07;15.00;99.90
64226;DHT22;50545;56.064;26.178;2023-05-16T14:51:35;15.10;99.90
64226;DHT22;50545;56.064;26.178;2023-05-16T14:54:02;15.40;99.90
64226;DHT22;50545;56.064;26.178;2023-05-16T14:56:30;15.80;99.90
64226;DHT22;50545;56.064;26.178;2023-05-16T14:58:57;16.70;99.90
64226;DHT22;50545;56.064;26.178;2023-05-16T15:01:26;17.50;99.90
64226;DHT22;50545;56.064;26.178;2023-05-16T15:03:53;18.10;99.90
64226;DHT22;50545;56.064;26.178;2023-05-16T15:06:23;18.70;98.10
64226;DHT22;50545;56.064;26.178;2023-05-16T15:08:50;18.80;96.40
64226;DHT22;50545;56.064;26.178;2023-05-16T15:11:18;18.90;94.50
64226;DHT22;50545;56.064;26.178;2023-05-16T15:13:45;18.70;93.80
64226;DHT22;50545;56.064;26.178;2023-05-16T15:16:14;18.50;93.60
64226;DHT22;50545;56.064;26.178;2023-05-16T15:18:42;18.20;93.00
64226;DHT22;50545;56.064;26.178;2023-05-16T15:21:10;17.90;92.40
64226;DHT22;50545;56.064;26.178;2023-05-16T15:23:37;17.60;92.30
64226;DHT22;50545;56.064;26.178;2023-05-16T15:26:04;17.30;93.70
64226;DHT22;50545;56.064;26.178;2023-05-16T15:28:32;17.20;94.10
64226;DHT22;50545;56.064;26.178;2023-05-16T15:30:59;17.20;94.70
64226;DHT22;50545;56.064;26.178;2023-05-16T15:33:26;17.00;94.10
64226;DHT22;50545;56.064;26.178;2023-05-16T15:35:53;16.80;93.30
64226;DHT22;50545;56.064;26.178;2023-05-16T15:38:21;16.80;94.50
64226;DHT22;50545;56.064;26.178;2023-05-16T15:40:48;16.70;95.00
64226;DHT22;50545;56.064;26.178;2023-05-16T15:43:31;16.70;95.70
64226;DHT22;50545;56.064;26.178;2023-05-16T15:45:58;16.70;94.90
64226;DHT22;50545;56.064;26.178;2023-05-16T15:48:26;16.70;94.00
64226;DHT22;50545;56.064;26.178;2023-05-16T15:50:53;16.60;94.80
64226;DHT22;50545;56.064;26.178;2023-05-16T15:53:20;16.60;94.80
64226;DHT22;50545;56.064;26.178;2023-05-16T15:55:47;16.60;94.60
64226;DHT22;50545;56.064;26.178;2023-05-16T15:58:15;16.60;94.70
64226;DHT22;50545;56.064;26.178;2023-05-16T16:00:42;16.50;94.70
64226;DHT22;50545;56.064;26.178;2023-05-16T16:03:11;16.30;94.00
64226;DHT22;50545;56.064;26.178;2023-05-16T16:05:39;16.20;94.80
64226;DHT22;50545;56.064;26.178;2023-05-16T16:08:06;16.10;94.60
64226;DHT22;50545;56.064;26.178;2023-05-16T16:10:33;16.10;94.80
64226;DHT22;50545;56.064;26.178;2023-05-16T16:13:02;16.00;94.40
64226;DHT22;50545;56.064;26.178;2023-05-16T16:15:32;15.90;94.10
64226;DHT22;50545;56.064;26.178;2023-05-16T16:18:00;15.80;93.90
64226;DHT22;50545;56.064;26.178;2023-05-16T16:20:27;15.70;94.10
64226;DHT22;50545;56.064;26.178;2023-05-16T16:22:55;15.60;93.30
64226;DHT22;50545;56.064;26.178;2023-05-16T16:25:22;15.60;93.10
64226;DHT22;50545;56.064;26.178;2023-05-16T16:27:50;15.50;93.50
64226;DHT22;50545;56.064;26.178;2023-05-16T16:30:17;15.50;92.70
64226;DHT22;50545;56.064;26.178;2023-05-16T16:32:44;15.40;92.50
64226;DHT22;50545;56.064;26.178;2023-05-16T16:35:14;15.40;93.00
64226;DHT22;50545;56.064;26.178;2023-05-16T16:37:42;15.30;92.90
64226;DHT22;50545;56.064;26.178;2023-05-16T16:40:29;15.30;92.50
64226;DHT22;50545;56.064;26.178;2023-05-16T16:42:56;15.20;92.90
64226;DHT22;50545;56.064;26.178;2023-05-16T16:45:24;15.20;93.30
64226;DHT22;50545;56.064;26.178;2023-05-16T16:47:53;15.20;93.50
64226;DHT22;50545;56.064;26.178;2023-05-16T16:50:20;15.20;93.90
64226;DHT22;50545;56.064;26.178;2023-05-16T16:52:47;15.10;93.80
64226;DHT22;50545;56.064;26.178;2023-05-16T16:55:15;15.10;94.20
64226;DHT22;50545;56.064;26.178;2023-05-16T16:57:42;15.10;94.10
64226;DHT22;50545;56.064;26.178;2023-05-16T17:00:10;15.10;94.70
64226;DHT22;50545;56.064;26.178;2023-05-16T17:02:41;15.10;95.00
64226;DHT22;50545;56.064;26.178;2023-05-16T17:05:09;15.10;95.20
64226;DHT22;50545;56.064;26.178;2023-05-16T17:07:36;15.10;95.20
64226;DHT22;50545;56.064;26.178;2023-05-16T17:10:04;15.10;94.90